sensor_id;sensor_type;location;lat;lon;timestamp;pressure;altitude;pressure_sealevel;temperature;humidity
44359;BME280;30077;52.474;13.326;2023-02-15T00:02:14;102539.59;;;3.47;100.00
44359;BME280;30077;52.474;13.326;2023-02-15T00:07:15;102550.97;;;3.43;100.00
44359;BME280;30077;52.474;13.326;2023-02-15T00:12:16;102554.44;;;3.40;100.00
44359;BME280;30077;52.474;13.326;2023-02-15T00:17:16;102550.81;;;3.32;100.00
44359;BME280;30077;52.474;13.326;2023-02-15T00:22:16;102534.03;;;3.28;100.00
44359;BME280;30077;52.474;13.326;2023-02-15T00:27:16;102529.59;;;3.24;100.00
44359;BME280;30077;52.474;13.326;2023-02-15T00:32:16;102528.63;;;3.19;100.00
44359;BME280;30077;52.474;13.326;2023-02-15T00:37:17;102526.84;;;3.18;100.00
44359;BME280;30077;52.474;13.326;2023-02-15T00:42:17;102531.19;;;3.14;100.00
44359;BME280;30077;52.474;13.326;2023-02-15T00:47:17;102529.38;;;3.10;100.00
44359;BME280;30077;52.474;13.326;2023-02-15T00:52:17;102526.69;;;3.07;100.00
44359;BME280;30077;52.474;13.326;2023-02-15T00:57:17;102522.22;;;3.02;100.00
44359;BME280;30077;52.474;13.326;2023-02-15T01:02:18;102523.91;;;2.98;100.00
44359;BME280;30077;52.474;13.326;2023-02-15T01:07:18;102517.72;;;2.95;100.00
44359;BME280;30077;52.474;13.326;2023-02-15T01:12:18;102512.28;;;2.85;100.00
44359;BME280;30077;52.474;13.326;2023-02-15T01:17:18;102503.47;;;2.83;100.00
44359;BME280;30077;52.474;13.326;2023-02-15T01:22:18;102508.69;;;2.80;100.00
44359;BME280;30077;52.474;13.326;2023-02-15T01:27:18;102499.84;;;2.77;100.00
44359;BME280;30077;52.474;13.326;2023-02-15T01:32:19;102487.50;;;2.74;100.00
44359;BME280;30077;52.474;13.326;2023-02-15T01:37:19;102482.22;;;2.74;100.00
44359;BME280;30077;52.474;13.326;2023-02-15T01:42:22;102477.72;;;2.69;100.00
44359;BME280;30077;52.474;13.326;2023-02-15T01:52:24;102466.16;;;2.59;100.00
44359;BME280;30077;52.474;13.326;2023-02-15T01:57:24;102447.59;;;2.51;100.00
44359;BME280;30077;52.474;13.326;2023-02-15T02:02:26;102447.59;;;2.51;100.00
44359;BME280;30077;52.474;13.326;2023-02-15T02:07:28;102445.78;;;2.50;100.00
44359;BME280;30077;52.474;13.326;2023-02-15T02:12:28;102437.88;;;2.49;100.00
44359;BME280;30077;52.474;13.326;2023-02-15T02:33:13;102428.03;;;2.38;100.00
44359;BME280;30077;52.474;13.326;2023-02-15T02:38:52;102424.53;;;2.38;100.00
44359;BME280;30077;52.474;13.326;2023-02-15T02:48:48;102411.19;;;2.27;100.00
44359;BME280;30077;52.474;13.326;2023-02-15T02:53:50;102402.34;;;2.22;100.00
44359;BME280;30077;52.474;13.326;2023-02-15T03:04:10;102398.56;;;2.08;100.00
44359;BME280;30077;52.474;13.326;2023-02-15T03:09:12;102390.66;;;2.08;100.00
44359;BME280;30077;52.474;13.326;2023-02-15T03:14:17;102379.16;;;2.03;100.00
44359;BME280;30077;52.474;13.326;2023-02-15T03:19:26;102384.41;;;2.03;100.00
44359;BME280;30077;52.474;13.326;2023-02-15T03:24:28;102378.13;;;1.95;100.00
44359;BME280;30077;52.474;13.326;2023-02-15T03:29:32;102378.88;;;1.87;100.00
44359;BME280;30077;52.474;13.326;2023-02-15T03:34:33;102385.81;;;1.82;100.00
44359;BME280;30077;52.474;13.326;2023-02-15T03:39:35;102380.50;;;1.79;100.00
44359;BME280;30077;52.474;13.326;2023-02-15T03:44:45;102372.53;;;1.75;100.00
44359;BME280;30077;52.474;13.326;2023-02-15T03:50:05;102378.56;;;1.69;100.00
44359;BME280;30077;52.474;13.326;2023-02-15T03:55:30;102361.81;;;1.65;100.00
44359;BME280;30077;52.474;13.326;2023-02-15T04:00:30;102354.72;;;1.61;100.00
44359;BME280;30077;52.474;13.326;2023-02-15T04:05:52;102359.03;;;1.58;100.00
44359;BME280;30077;52.474;13.326;2023-02-15T04:10:52;102355.47;;;1.54;100.00
44359;BME280;30077;52.474;13.326;2023-02-15T04:15:53;102350.06;;;1.47;100.00
44359;BME280;30077;52.474;13.326;2023-02-15T04:21:05;102349.13;;;1.44;100.00
44359;BME280;30077;52.474;13.326;2023-02-15T04:26:24;102344.75;;;1.43;100.00
44359;BME280;30077;52.474;13.326;2023-02-15T04:31:24;102344.66;;;1.39;100.00
44359;BME280;30077;52.474;13.326;2023-02-15T04:36:25;102341.91;;;1.34;100.00
44359;BME280;30077;52.474;13.326;2023-02-15T04:41:25;102339.19;;;1.28;100.00
44359;BME280;30077;52.474;13.326;2023-02-15T04:46:25;102332.94;;;1.23;100.00
44359;BME280;30077;52.474;13.326;2023-02-15T04:51:25;102317.06;;;1.18;100.00
44359;BME280;30077;52.474;13.326;2023-02-15T04:56:25;102303.72;;;1.08;100.00
44359;BME280;30077;52.474;13.326;2023-02-15T05:01:25;102297.56;;;1.06;100.00
44359;BME280;30077;52.474;13.326;2023-02-15T05:06:25;102295.81;;;1.06;100.00
44359;BME280;30077;52.474;13.326;2023-02-15T05:11:26;102292.16;;;0.98;100.00
44359;BME280;30077;52.474;13.326;2023-02-15T05:16:26;102284.22;;;0.96;100.00
44359;BME280;30077;52.474;13.326;2023-02-15T05:21:27;102280.63;;;0.91;100.00
44359;BME280;30077;52.474;13.326;2023-02-15T05:26:27;102294.59;;;0.90;100.00
44359;BME280;30077;52.474;13.326;2023-02-15T05:31:46;102282.47;;;0.95;100.00
44359;BME280;30077;52.474;13.326;2023-02-15T05:36:47;102282.38;;;0.92;100.00
44359;BME280;30077;52.474;13.326;2023-02-15T05:41:48;102275.22;;;0.85;100.00
44359;BME280;30077;52.474;13.326;2023-02-15T05:46:49;102265.59;;;0.86;100.00
44359;BME280;30077;52.474;13.326;2023-02-15T05:51:49;102269.19;;;0.89;100.00
44359;BME280;30077;52.474;13.326;2023-02-15T05:56:49;102271.06;;;0.95;100.00
44359;BME280;30077;52.474;13.326;2023-02-15T06:01:49;102274.50;;;0.91;100.00
44359;BME280;30077;52.474;13.326;2023-02-15T06:06:50;102271.94;;;0.95;100.00
44359;BME280;30077;52.474;13.326;2023-02-15T06:11:50;102270.34;;;1.02;100.00
44359;BME280;30077;52.474;13.326;2023-02-15T06:16:50;102274.84;;;1.09;100.00
44359;BME280;30077;52.474;13.326;2023-02-15T06:21:50;102279.31;;;1.15;100.00
44359;BME280;30077;52.474;13.326;2023-02-15T06:26:50;102273.06;;;1.08;100.00
44359;BME280;30077;52.474;13.326;2023-02-15T06:31:51;102276.56;;;1.07;100.00
44359;BME280;30077;52.474;13.326;2023-02-15T06:36:51;102266.91;;;1.08;100.00
44359;BME280;30077;52.474;13.326;2023-02-15T06:41:51;102264.28;;;1.08;100.00
44359;BME280;30077;52.474;13.326;2023-02-15T06:46:51;102265.31;;;1.14;100.00
44359;BME280;30077;52.474;13.326;2023-02-15T06:51:51;102257.47;;;1.17;100.00
44359;BME280;30077;52.474;13.326;2023-02-15T06:56:52;102262.66;;;1.13;100.00
44359;BME280;30077;52.474;13.326;2023-02-15T07:01:52;102263.56;;;1.15;100.00
44359;BME280;30077;52.474;13.326;2023-02-15T07:06:52;102258.56;;;1.27;100.00
44359;BME280;30077;52.474;13.326;2023-02-15T07:11:52;102263.00;;;1.31;100.00
44359;BME280;30077;52.474;13.326;2023-02-15T07:17:11;102256.94;;;1.35;100.00
44359;BME280;30077;52.474;13.326;2023-02-15T07:22:11;102248.06;;;1.30;100.00
44359;BME280;30077;52.474;13.326;2023-02-15T07:27:11;102233.41;;;1.43;100.00
44359;BME280;30077;52.474;13.326;2023-02-15T07:32:12;102228.22;;;1.46;100.00
44359;BME280;30077;52.474;13.326;2023-02-15T07:37:12;102220.28;;;1.44;100.00
44359;BME280;30077;52.474;13.326;2023-02-15T07:42:12;102227.59;;;1.61;100.00
44359;BME280;30077;52.474;13.326;2023-02-15T07:47:12;102232.97;;;1.70;100.00
44359;BME280;30077;52.474;13.326;2023-02-15T07:52:12;102217.41;;;1.82;100.00
44359;BME280;30077;52.474;13.326;2023-02-15T07:57:12;102211.44;;;1.96;100.00
44359;BME280;30077;52.474;13.326;2023-02-15T08:02:13;102208.91;;;2.02;100.00
44359;BME280;30077;52.474;13.326;2023-02-15T08:07:13;102211.72;;;2.11;100.00
44359;BME280;30077;52.474;13.326;2023-02-15T08:12:13;102209.22;;;2.23;100.00
44359;BME280;30077;52.474;13.326;2023-02-15T08:17:13;102192.56;;;2.24;100.00
44359;BME280;30077;52.474;13.326;2023-02-15T08:22:13;102204.22;;;2.43;100.00
44359;BME280;30077;52.474;13.326;2023-02-15T08:27:14;102192.75;;;2.39;100.00
44359;BME280;30077;52.474;13.326;2023-02-15T08:32:14;102201.63;;;2.45;100.00
44359;BME280;30077;52.474;13.326;2023-02-15T08:37:14;102198.38;;;2.69;100.00
44359;BME280;30077;52.474;13.326;2023-02-15T08:42:14;102192.50;;;2.89;100.00
44359;BME280;30077;52.474;13.326;2023-02-15T08:47:14;102190.84;;;3.01;100.00
44359;BME280;30077;52.474;13.326;2023-02-15T08:52:15;102175.03;;;3.01;100.00
44359;BME280;30077;52.474;13.326;2023-02-15T08:57:15;102174.34;;;3.17;100.00
44359;BME280;30077;52.474;13.326;2023-02-15T09:02:15;102168.25;;;3.24;100.00
44359;BME280;30077;52.474;13.326;2023-02-15T09:07:15;102162.25;;;3.42;100.00
44359;BME280;30077;52.474;13.326;2023-02-15T09:12:16;102150.91;;;3.54;100.00
44359;BME280;30077;52.474;13.326;2023-02-15T09:17:17;102161.59;;;3.72;100.00
44359;BME280;30077;52.474;13.326;2023-02-15T09:22:17;102159.06;;;3.91;100.00
44359;BME280;30077;52.474;13.326;2023-02-15T09:27:17;102155.59;;;3.98;100.00
44359;BME280;30077;52.474;13.326;2023-02-15T09:32:17;102163.59;;;4.13;99.75
44359;BME280;30077;52.474;13.326;2023-02-15T09:37:17;102159.22;;;4.17;99.83
44359;BME280;30077;52.474;13.326;2023-02-15T09:53:13;102154.19;;;4.76;95.40
44359;BME280;30077;52.474;13.326;2023-02-15T09:58:28;102152.44;;;4.81;95.59
44359;BME280;30077;52.474;13.326;2023-02-15T10:03:41;102148.91;;;4.79;95.87
44359;BME280;30077;52.474;13.326;2023-02-15T10:13:49;102146.34;;;5.35;93.56
44359;BME280;30077;52.474;13.326;2023-02-15T10:18:55;102140.16;;;5.29;92.86
44359;BME280;30077;52.474;13.326;2023-02-15T10:24:02;102142.78;;;5.29;93.02
44359;BME280;30077;52.474;13.326;2023-02-15T10:29:09;102130.47;;;5.28;93.94
44359;BME280;30077;52.474;13.326;2023-02-15T10:39:25;102115.47;;;5.35;93.98
44359;BME280;30077;52.474;13.326;2023-02-15T10:49:53;102108.41;;;5.31;94.26
44359;BME280;30077;52.474;13.326;2023-02-15T11:00:41;102096.03;;;5.51;94.65
44359;BME280;30077;52.474;13.326;2023-02-15T11:05:59;102092.50;;;5.54;94.97
44359;BME280;30077;52.474;13.326;2023-02-15T11:11:01;102079.28;;;5.54;95.92
44359;BME280;30077;52.474;13.326;2023-02-15T11:16:12;102072.19;;;5.68;96.23
44359;BME280;30077;52.474;13.326;2023-02-15T11:21:26;102071.22;;;6.05;94.90
44359;BME280;30077;52.474;13.326;2023-02-15T11:26:44;102061.38;;;6.36;93.26
44359;BME280;30077;52.474;13.326;2023-02-15T11:31:46;102064.84;;;6.44;91.93
44359;BME280;30077;52.474;13.326;2023-02-15T11:36:47;102058.66;;;6.45;92.31
44359;BME280;30077;52.474;13.326;2023-02-15T11:41:51;102052.44;;;6.52;93.67
44359;BME280;30077;52.474;13.326;2023-02-15T11:46:53;102034.53;;;6.85;91.82
44359;BME280;30077;52.474;13.326;2023-02-15T11:51:54;102033.53;;;7.01;90.30
44359;BME280;30077;52.474;13.326;2023-02-15T11:56:56;102035.97;;;7.22;89.85
44359;BME280;30077;52.474;13.326;2023-02-15T12:01:58;102027.03;;;7.30;88.58
44359;BME280;30077;52.474;13.326;2023-02-15T12:17:26;102037.34;;;7.63;88.09
44359;BME280;30077;52.474;13.326;2023-02-15T12:22:28;102027.47;;;7.73;87.77
44359;BME280;30077;52.474;13.326;2023-02-15T12:27:30;102019.38;;;7.84;87.37
44359;BME280;30077;52.474;13.326;2023-02-15T12:32:31;102003.38;;;7.90;86.56
44359;BME280;30077;52.474;13.326;2023-02-15T12:37:33;102004.94;;;8.06;86.99
44359;BME280;30077;52.474;13.326;2023-02-15T12:42:43;101994.97;;;8.20;86.05
44359;BME280;30077;52.474;13.326;2023-02-15T12:47:44;101985.16;;;8.26;85.77
44359;BME280;30077;52.474;13.326;2023-02-15T12:52:48;101972.59;;;8.37;86.37
44359;BME280;30077;52.474;13.326;2023-02-15T12:57:58;101964.28;;;8.60;85.83
44359;BME280;30077;52.474;13.326;2023-02-15T13:03:04;101956.75;;;8.86;84.68
44359;BME280;30077;52.474;13.326;2023-02-15T13:08:17;101955.72;;;8.95;83.77
44359;BME280;30077;52.474;13.326;2023-02-15T13:13:20;101950.09;;;9.10;82.99
44359;BME280;30077;52.474;13.326;2023-02-15T13:23:28;101925.38;;;9.05;83.78
44359;BME280;30077;52.474;13.326;2023-02-15T13:28:39;101925.66;;;8.90;84.93
44359;BME280;30077;52.474;13.326;2023-02-15T13:33:42;101921.06;;;8.97;85.42
44359;BME280;30077;52.474;13.326;2023-02-15T13:38:50;101916.38;;;9.11;84.71
44359;BME280;30077;52.474;13.326;2023-02-15T13:43:58;101905.34;;;9.31;84.13
44359;BME280;30077;52.474;13.326;2023-02-15T13:49:13;101899.16;;;9.29;84.57
44359;BME280;30077;52.474;13.326;2023-02-15T13:54:24;101896.88;;;9.10;85.26
44359;BME280;30077;52.474;13.326;2023-02-15T13:59:38;101910.38;;;9.01;85.97
44359;BME280;30077;52.474;13.326;2023-02-15T14:25:57;101902.03;;;9.20;85.73
44359;BME280;30077;52.474;13.326;2023-02-15T14:30:56;101887.78;;;9.21;85.37
44359;BME280;30077;52.474;13.326;2023-02-15T14:35:57;101879.03;;;9.15;85.72
44359;BME280;30077;52.474;13.326;2023-02-15T14:56:43;101868.66;;;8.54;89.92
44359;BME280;30077;52.474;13.326;2023-02-15T15:01:51;101874.13;;;8.44;90.48
44359;BME280;30077;52.474;13.326;2023-02-15T15:07:00;101860.91;;;8.37;91.22
44359;BME280;30077;52.474;13.326;2023-02-15T15:22:33;101855.94;;;8.15;92.88
44359;BME280;30077;52.474;13.326;2023-02-15T15:27:41;101865.75;;;8.13;92.84
44359;BME280;30077;52.474;13.326;2023-02-15T15:47:54;101876.97;;;7.72;94.86
44359;BME280;30077;52.474;13.326;2023-02-15T15:52:58;101862.16;;;7.54;94.88
44359;BME280;30077;52.474;13.326;2023-02-15T15:58:03;101865.06;;;7.37;95.84
44359;BME280;30077;52.474;13.326;2023-02-15T16:03:05;101855.47;;;7.22;97.51
44359;BME280;30077;52.474;13.326;2023-02-15T16:08:05;101855.66;;;7.07;98.10
44359;BME280;30077;52.474;13.326;2023-02-15T16:13:06;101851.44;;;6.91;99.60
44359;BME280;30077;52.474;13.326;2023-02-15T16:18:10;101836.56;;;6.76;100.00
44359;BME280;30077;52.474;13.326;2023-02-15T16:23:16;101838.44;;;6.66;100.00
44359;BME280;30077;52.474;13.326;2023-02-15T16:28:22;101829.72;;;6.52;100.00
44359;BME280;30077;52.474;13.326;2023-02-15T16:33:22;101837.78;;;6.41;100.00
44359;BME280;30077;52.474;13.326;2023-02-15T16:43:42;101835.25;;;6.24;100.00
44359;BME280;30077;52.474;13.326;2023-02-15T16:48:45;101838.03;;;6.12;100.00
44359;BME280;30077;52.474;13.326;2023-02-15T16:53:47;101828.41;;;5.99;100.00
44359;BME280;30077;52.474;13.326;2023-02-15T16:58:50;101835.50;;;5.88;100.00
44359;BME280;30077;52.474;13.326;2023-02-15T17:04:09;101839.09;;;5.80;100.00
44359;BME280;30077;52.474;13.326;2023-02-15T17:09:14;101842.72;;;5.70;100.00
44359;BME280;30077;52.474;13.326;2023-02-15T17:14:19;101840.13;;;5.61;100.00
44359;BME280;30077;52.474;13.326;2023-02-15T17:19:24;101823.38;;;5.56;100.00
44359;BME280;30077;52.474;13.326;2023-02-15T17:24:38;101826.91;;;5.55;100.00
44359;BME280;30077;52.474;13.326;2023-02-15T17:29:40;101833.13;;;5.46;100.00
44359;BME280;30077;52.474;13.326;2023-02-15T17:34:57;101827.00;;;5.37;100.00
44359;BME280;30077;52.474;13.326;2023-02-15T17:40:20;101818.25;;;5.24;100.00
44359;BME280;30077;52.474;13.326;2023-02-15T17:45:21;101827.09;;;5.15;100.00
44359;BME280;30077;52.474;13.326;2023-02-15T17:50:22;101827.16;;;5.06;100.00
44359;BME280;30077;52.474;13.326;2023-02-15T17:55:23;101827.16;;;5.00;100.00
44359;BME280;30077;52.474;13.326;2023-02-15T18:00:48;101832.44;;;4.97;100.00
44359;BME280;30077;52.474;13.326;2023-02-15T18:06:07;101835.13;;;4.95;100.00
44359;BME280;30077;52.474;13.326;2023-02-15T18:11:26;101825.41;;;4.93;100.00
44359;BME280;30077;52.474;13.326;2023-02-15T18:16:39;101824.56;;;4.86;100.00
44359;BME280;30077;52.474;13.326;2023-02-15T18:21:41;101820.19;;;4.77;100.00
44359;BME280;30077;52.474;13.326;2023-02-15T18:26:41;101812.28;;;4.70;100.00
44359;BME280;30077;52.474;13.326;2023-02-15T18:31:42;101807.88;;;4.64;100.00
44359;BME280;30077;52.474;13.326;2023-02-15T18:36:43;101812.28;;;4.61;100.00
44359;BME280;30077;52.474;13.326;2023-02-15T18:41:44;101807.91;;;4.55;100.00
44359;BME280;30077;52.474;13.326;2023-02-15T18:46:44;101800.88;;;4.51;100.00
44359;BME280;30077;52.474;13.326;2023-02-15T18:51:44;101804.41;;;4.44;100.00
44359;BME280;30077;52.474;13.326;2023-02-15T18:56:45;101803.53;;;4.40;100.00
44359;BME280;30077;52.474;13.326;2023-02-15T19:01:47;101803.50;;;4.35;100.00
44359;BME280;30077;52.474;13.326;2023-02-15T19:06:48;101804.41;;;4.34;100.00
44359;BME280;30077;52.474;13.326;2023-02-15T19:11:50;101796.47;;;4.31;100.00
44359;BME280;30077;52.474;13.326;2023-02-15T19:16:51;101798.25;;;4.28;100.00
44359;BME280;30077;52.474;13.326;2023-02-15T19:21:51;101788.56;;;4.31;100.00
44359;BME280;30077;52.474;13.326;2023-02-15T19:26:51;101778.00;;;4.22;100.00
44359;BME280;30077;52.474;13.326;2023-02-15T19:31:52;101778.91;;;4.15;100.00
44359;BME280;30077;52.474;13.326;2023-02-15T19:36:52;101767.44;;;4.13;100.00
44359;BME280;30077;52.474;13.326;2023-02-15T19:41:53;101765.69;;;4.09;100.00
44359;BME280;30077;52.474;13.326;2023-02-15T19:46:53;101754.25;;;4.02;100.00
44359;BME280;30077;52.474;13.326;2023-02-15T19:51:53;101752.50;;;3.98;100.00
44359;BME280;30077;52.474;13.326;2023-02-15T19:56:54;101747.22;;;3.94;100.00
44359;BME280;30077;52.474;13.326;2023-02-15T20:01:54;101735.78;;;3.89;100.00
44359;BME280;30077;52.474;13.326;2023-02-15T20:06:56;101737.56;;;3.85;100.00
44359;BME280;30077;52.474;13.326;2023-02-15T20:11:56;101726.97;;;3.77;100.00
44359;BME280;30077;52.474;13.326;2023-02-15T20:16:56;101718.19;;;3.72;100.00
44359;BME280;30077;52.474;13.326;2023-02-15T20:21:57;101723.47;;;3.72;100.00
44359;BME280;30077;52.474;13.326;2023-02-15T20:26:58;101718.19;;;3.72;100.00
44359;BME280;30077;52.474;13.326;2023-02-15T20:31:58;101716.44;;;3.73;100.00
44359;BME280;30077;52.474;13.326;2023-02-15T20:37:00;101712.91;;;3.69;100.00
44359;BME280;30077;52.474;13.326;2023-02-15T20:42:00;101716.44;;;3.65;100.00
44359;BME280;30077;52.474;13.326;2023-02-15T20:47:00;101716.44;;;3.64;100.00
44359;BME280;30077;52.474;13.326;2023-02-15T20:52:01;101719.06;;;3.56;100.00
44359;BME280;30077;52.474;13.326;2023-02-15T20:57:02;101718.19;;;3.54;100.00
44359;BME280;30077;52.474;13.326;2023-02-15T21:02:17;101727.84;;;3.52;100.00
44359;BME280;30077;52.474;13.326;2023-02-15T21:07:19;101721.69;;;3.47;100.00
44359;BME280;30077;52.474;13.326;2023-02-15T21:12:20;101713.75;;;3.41;100.00
44359;BME280;30077;52.474;13.326;2023-02-15T21:17:21;101713.78;;;3.34;100.00
44359;BME280;30077;52.474;13.326;2023-02-15T21:22:21;101723.41;;;3.29;100.00
44359;BME280;30077;52.474;13.326;2023-02-15T21:27:22;101694.41;;;3.26;100.00
44359;BME280;30077;52.474;13.326;2023-02-15T21:32:24;101709.34;;;3.24;100.00
44359;BME280;30077;52.474;13.326;2023-02-15T21:37:31;101714.66;;;3.27;100.00
44359;BME280;30077;52.474;13.326;2023-02-15T21:42:31;101722.53;;;3.24;100.00
44359;BME280;30077;52.474;13.326;2023-02-15T21:47:50;101727.81;;;3.24;100.00
44359;BME280;30077;52.474;13.326;2023-02-15T21:52:50;101719.91;;;3.21;100.00
44359;BME280;30077;52.474;13.326;2023-02-15T21:57:51;101719.88;;;3.18;100.00
44359;BME280;30077;52.474;13.326;2023-02-15T22:02:51;101713.75;;;3.16;100.00
44359;BME280;30077;52.474;13.326;2023-02-15T22:07:52;101714.59;;;3.15;100.00
44359;BME280;30077;52.474;13.326;2023-02-15T22:12:52;101705.81;;;3.10;100.00
44359;BME280;30077;52.474;13.326;2023-02-15T22:17:53;101704.03;;;3.03;100.00
44359;BME280;30077;52.474;13.326;2023-02-15T22:22:53;101708.41;;;2.98;100.00
44359;BME280;30077;52.474;13.326;2023-02-15T22:27:54;101704.94;;;3.09;100.00
44359;BME280;30077;52.474;13.326;2023-02-15T22:32:55;101697.88;;;2.99;100.00
44359;BME280;30077;52.474;13.326;2023-02-15T22:37:55;101700.50;;;2.92;100.00
44359;BME280;30077;52.474;13.326;2023-02-15T22:42:56;101706.63;;;2.89;100.00
44359;BME280;30077;52.474;13.326;2023-02-15T22:47:57;101705.72;;;2.85;100.00
44359;BME280;30077;52.474;13.326;2023-02-15T22:52:59;101700.44;;;2.82;100.00
44359;BME280;30077;52.474;13.326;2023-02-15T22:57:59;101689.88;;;2.79;100.00
44359;BME280;30077;52.474;13.326;2023-02-15T23:03:00;101688.13;;;2.78;100.00
44359;BME280;30077;52.474;13.326;2023-02-15T23:08:00;101684.66;;;2.81;100.00
44359;BME280;30077;52.474;13.326;2023-02-15T23:13:00;101680.25;;;2.81;100.00
44359;BME280;30077;52.474;13.326;2023-02-15T23:18:28;101684.63;;;2.82;100.00
44359;BME280;30077;52.474;13.326;2023-02-15T23:23:35;101690.78;;;2.81;100.00
44359;BME280;30077;52.474;13.326;2023-02-15T23:28:36;101682.88;;;2.78;100.00
44359;BME280;30077;52.474;13.326;2023-02-15T23:33:37;101680.22;;;2.75;100.00
44359;BME280;30077;52.474;13.326;2023-02-15T23:38:37;101696.03;;;2.74;100.00
44359;BME280;30077;52.474;13.326;2023-02-15T23:43:38;101703.94;;;2.71;100.00
44359;BME280;30077;52.474;13.326;2023-02-15T23:48:39;101692.50;;;2.65;100.00
44359;BME280;30077;52.474;13.326;2023-02-15T23:53:39;101692.50;;;2.62;100.00
44359;BME280;30077;52.474;13.326;2023-02-15T23:58:40;101688.97;;;2.63;100.00
